createdAt,value
2019-05-02T00:00:56.987Z,60.57
2019-05-02T00:03:27.932Z,60.96
2019-05-02T00:05:58.718Z,61.58
2019-05-02T00:08:32.992Z,61.34
2019-05-02T00:11:03.559Z,61.37
2019-05-02T00:13:33.186Z,61.42
2019-05-02T00:16:02.726Z,61.95
2019-05-02T00:18:37.259Z,61.43
2019-05-02T00:21:08.145Z,61.27
2019-05-02T00:23:37.841Z,61.38
2019-05-02T00:26:07.708Z,61.29
2019-05-02T00:28:37.438Z,62.13
2019-05-02T00:31:11.571Z,61.71
2019-05-02T00:33:38.874Z,61.44
2019-05-02T00:36:09.098Z,62.09
2019-05-02T00:38:39.955Z,62.06
2019-05-02T00:41:09.778Z,61.79
2019-05-02T00:43:39.402Z,61.29
2019-05-02T00:46:09.138Z,60.79
2019-05-02T00:48:40.368Z,60.41
2019-05-02T00:51:14.172Z,60.05
2019-05-02T00:53:48.283Z,59.80
2019-05-02T00:56:18.310Z,60.02
2019-05-02T00:58:47.907Z,60.08
2019-05-02T01:01:29.624Z,60.21
2019-05-02T01:03:59.210Z,59.87
2019-05-02T01:06:29.401Z,60.93
2019-05-02T01:08:59.275Z,60.43
2019-05-02T01:11:32.234Z,60.81
2019-05-02T01:14:00.407Z,60.73
2019-05-02T01:16:30.145Z,60.42
2019-05-02T01:18:59.887Z,60.47
2019-05-02T01:21:29.462Z,60.68
2019-05-02T01:24:02.998Z,61.48
2019-05-02T01:26:32.116Z,61.78
2019-05-02T01:29:09.371Z,61.69
2019-05-02T01:31:56.790Z,62.18
2019-05-02T01:34:44.328Z,61.85
2019-05-02T01:37:24.541Z,61.75
2019-05-02T01:39:54.612Z,62.21
2019-05-02T01:42:24.239Z,62.86
2019-05-02T01:44:54.043Z,62.90
2019-05-02T01:47:29.143Z,63.20
2019-05-02T01:49:57.095Z,63.29
2019-05-02T01:52:27.377Z,63.55
2019-05-02T01:55:00.087Z,63.06
2019-05-02T01:57:29.631Z,64.23
2019-05-02T01:59:59.231Z,64.46
2019-05-02T02:02:32.829Z,65.26
2019-05-02T02:05:00.198Z,66.34
2019-05-02T02:07:29.735Z,65.48
2019-05-02T02:09:59.423Z,65.11
2019-05-02T02:12:29.012Z,64.83
2019-05-02T02:14:58.655Z,64.14
2019-05-02T02:17:28.455Z,64.58
2019-05-02T02:20:03.892Z,64.68
2019-05-02T02:22:44.241Z,64.55
2019-05-02T02:25:27.395Z,66.59
2019-05-02T02:27:59.596Z,68.05
2019-05-02T02:30:28.420Z,67.98
2019-05-02T02:33:00.670Z,67.30
2019-05-02T02:35:29.609Z,68.17
2019-05-02T02:37:59.217Z,68.12
2019-05-02T02:40:34.016Z,69.89
2019-05-02T02:43:10.131Z,69.39
2019-05-02T02:45:58.128Z,69.76
2019-05-02T02:48:25.994Z,71.14
2019-05-02T02:50:55.592Z,71.03
2019-05-02T02:53:31.404Z,71.19
2019-05-02T02:56:05.604Z,71.14
2019-05-02T02:58:44.262Z,71.16
2019-05-02T03:01:06.930Z,71.56
2019-05-02T03:03:36.722Z,71.56
2019-05-02T03:06:08.164Z,71.25
2019-05-02T03:08:46.650Z,72.86
2019-05-02T03:11:10.911Z,71.94
2019-05-02T03:13:52.504Z,72.78
2019-05-02T03:16:20.670Z,72.38
2019-05-02T03:18:50.342Z,72.92
2019-05-02T03:21:22.449Z,72.57
2019-05-02T03:24:01.378Z,72.60
2019-05-02T03:26:23.900Z,72.76
2019-05-02T03:28:58.698Z,72.63
2019-05-02T03:31:30.176Z,72.51
2019-05-02T03:34:00.869Z,73.02
2019-05-02T03:36:35.760Z,73.37
2019-05-02T03:39:13.955Z,72.38
2019-05-02T03:41:32.828Z,73.10
2019-05-02T03:44:11.110Z,73.88
2019-05-02T03:46:34.907Z,73.61
2019-05-02T03:49:09.271Z,73.50
2019-05-02T03:51:37.061Z,72.98
2019-05-02T03:54:10.377Z,72.20
2019-05-02T03:56:44.784Z,73.00
2019-05-02T03:59:10.464Z,73.17
2019-05-02T04:01:41.364Z,72.95
2019-05-02T04:04:14.252Z,72.59
2019-05-02T04:06:44.740Z,73.26
2019-05-02T04:09:32.169Z,73.67
2019-05-02T04:12:01.489Z,72.90
2019-05-02T04:14:38.114Z,72.46
2019-05-02T04:17:03.317Z,72.25
2019-05-02T04:19:34.930Z,72.36
2019-05-02T04:22:08.425Z,73.26
2019-05-02T04:24:37.113Z,73.11
2019-05-02T04:27:06.923Z,72.53
2019-05-02T04:29:37.556Z,72.16
2019-05-02T04:32:11.446Z,71.72
2019-05-02T04:34:38.861Z,73.01
2019-05-02T04:37:08.501Z,73.17
2019-05-02T04:39:39.229Z,72.91
2019-05-02T04:42:15.962Z,72.64
2019-05-02T04:44:52.966Z,72.62
2019-05-02T04:47:17.347Z,72.49
2019-05-02T04:49:43.590Z,73.60
2019-05-02T04:52:16.876Z,73.45
2019-05-02T04:54:48.781Z,72.98
2019-05-02T04:57:18.808Z,73.37
2019-05-02T04:59:50.517Z,72.58
2019-05-02T05:02:29.293Z,72.79
2019-05-02T05:04:51.515Z,72.74
2019-05-02T05:07:21.331Z,72.56
2019-05-02T05:09:58.196Z,71.74
2019-05-02T05:12:23.586Z,71.48
2019-05-02T05:14:53.293Z,71.86
2019-05-02T05:17:25.222Z,72.18
2019-05-02T05:19:54.489Z,72.15
2019-05-02T05:22:24.163Z,71.20
2019-05-02T05:24:58.675Z,70.72
2019-05-02T05:27:28.289Z,70.28
2019-05-02T05:29:59.487Z,69.89
2019-05-02T05:32:29.578Z,69.77
2019-05-02T05:35:03.185Z,69.43
2019-05-02T05:37:30.634Z,70.21
2019-05-02T05:40:04.074Z,69.86
2019-05-02T05:42:33.706Z,69.74
2019-05-02T05:45:08.741Z,69.87
2019-05-02T05:47:35.213Z,69.47
2019-05-02T05:50:08.124Z,69.03
2019-05-02T05:52:38.738Z,69.16
2019-05-02T05:55:12.680Z,70.04
2019-05-02T05:57:40.682Z,69.90
2019-05-02T06:00:15.583Z,69.27
2019-05-02T06:02:52.758Z,68.84
2019-05-02T06:05:13.676Z,69.46
2019-05-02T06:07:44.878Z,69.84
2019-05-02T06:10:15.888Z,69.24
2019-05-02T06:12:45.524Z,68.71
2019-05-02T06:15:15.384Z,68.99
2019-05-02T06:17:45.146Z,69.20
2019-05-02T06:20:15.375Z,68.61
2019-05-02T06:22:45.027Z,69.68
2019-05-02T06:25:15.229Z,69.53
2019-05-02T06:27:44.939Z,69.15
2019-05-02T06:30:16.568Z,68.70
2019-05-02T06:32:49.926Z,68.57
2019-05-02T06:35:21.099Z,67.72
2019-05-02T06:37:50.055Z,66.53
2019-05-02T06:40:23.151Z,65.79
2019-05-02T06:42:52.904Z,65.44
2019-05-02T06:45:22.640Z,65.39
2019-05-02T06:47:53.321Z,64.93
2019-05-02T06:50:24.722Z,63.28
2019-05-02T06:52:54.306Z,63.52
2019-05-02T06:55:28.118Z,63.49
2019-05-02T06:57:57.086Z,63.10
2019-05-02T07:00:35.417Z,63.95
2019-05-02T07:02:59.260Z,63.96
2019-05-02T07:05:29.024Z,63.34
2019-05-02T07:07:58.666Z,63.79
2019-05-02T07:10:33.651Z,63.87
2019-05-02T07:13:10.077Z,63.69
2019-05-02T07:15:33.644Z,62.87
2019-05-02T07:18:14.143Z,64.35
2019-05-02T07:20:44.122Z,64.06
2019-05-02T07:23:16.169Z,64.30
2019-05-02T07:25:45.991Z,63.79
2019-05-02T07:28:15.865Z,63.23
2019-05-02T07:30:45.707Z,64.00
2019-05-02T07:33:15.932Z,63.88
2019-05-02T07:35:45.609Z,63.44
2019-05-02T07:38:15.370Z,62.84
2019-05-02T07:40:48.163Z,64.63
2019-05-02T07:43:21.159Z,64.42
2019-05-02T07:45:48.368Z,63.80
2019-05-02T07:48:19.098Z,63.48
2019-05-02T07:50:51.007Z,64.15
2019-05-02T07:53:20.784Z,63.69
2019-05-02T07:55:50.501Z,63.67
2019-05-02T07:58:20.272Z,64.21
2019-05-02T08:00:50.070Z,65.35
2019-05-02T08:03:20.141Z,64.93
2019-05-02T08:05:54.363Z,65.80
2019-05-02T08:08:25.082Z,65.57
2019-05-02T08:10:53.824Z,66.14
2019-05-02T08:13:24.252Z,65.73
2019-05-02T08:15:53.982Z,65.11
2019-05-02T08:18:30.283Z,64.87
2019-05-02T08:20:57.579Z,64.97
2019-05-02T08:23:27.858Z,65.37
2019-05-02T08:25:57.762Z,65.77
2019-05-02T08:28:34.653Z,65.95
2019-05-02T08:31:04.296Z,67.08
2019-05-02T08:33:34.732Z,66.58
2019-05-02T08:36:05.378Z,66.28
2019-05-02T08:38:35.252Z,65.12
2019-05-02T08:41:05.462Z,64.32
2019-05-02T08:43:35.159Z,63.95
2019-05-02T08:46:09.402Z,64.04
2019-05-02T08:48:41.725Z,64.73
2019-05-02T08:51:08.389Z,64.31
2019-05-02T08:53:38.087Z,64.05
2019-05-02T08:56:07.795Z,65.60
2019-05-02T08:58:37.483Z,65.58
2019-05-02T09:01:09.276Z,64.63
2019-05-02T09:03:54.820Z,63.92
2019-05-02T09:06:09.895Z,63.72
2019-05-02T09:08:40.600Z,63.29
2019-05-02T09:11:14.165Z,64.36
2019-05-02T09:13:42.174Z,64.64
2019-05-02T09:16:12.143Z,63.64
2019-05-02T09:18:50.582Z,63.92
2019-05-02T09:21:13.126Z,63.27
2019-05-02T09:23:43.984Z,63.60
2019-05-02T09:26:13.744Z,63.78
2019-05-02T09:28:43.362Z,63.80
2019-05-02T09:31:14.712Z,63.44
2019-05-02T09:33:46.782Z,63.08
2019-05-02T09:36:15.880Z,63.55
2019-05-02T09:38:48.770Z,64.06
2019-05-02T09:41:19.435Z,64.05
2019-05-02T09:43:48.812Z,64.42
2019-05-02T09:46:18.480Z,64.54
2019-05-02T09:48:48.110Z,65.25
2019-05-02T09:51:17.946Z,65.97
2019-05-02T09:53:47.708Z,66.28
2019-05-02T09:56:17.650Z,65.72
2019-05-02T09:58:49.301Z,64.88
2019-05-02T10:01:23.778Z,64.78
2019-05-02T10:03:53.516Z,64.94
2019-05-02T10:06:23.549Z,65.59
2019-05-02T10:08:53.649Z,65.74
2019-05-02T10:11:26.133Z,66.06
2019-05-02T10:13:55.490Z,66.76
2019-05-02T10:16:27.330Z,65.81
2019-05-02T10:19:00.388Z,65.34
2019-05-02T10:21:28.129Z,64.16
2019-05-02T10:23:59.572Z,64.42
2019-05-02T10:26:29.210Z,63.50
2019-05-02T10:28:58.876Z,63.51
2019-05-02T10:31:33.373Z,63.37
2019-05-02T10:34:02.227Z,63.88
2019-05-02T10:36:32.570Z,63.54
2019-05-02T10:39:02.689Z,63.05
2019-05-02T10:41:39.468Z,62.92
2019-05-02T10:44:03.970Z,61.99
2019-05-02T10:46:52.197Z,61.50
2019-05-02T10:49:23.130Z,60.79
2019-05-02T10:51:54.396Z,60.79
2019-05-02T10:54:27.913Z,60.24
2019-05-02T10:56:56.860Z,61.36
2019-05-02T10:59:26.517Z,61.15
2019-05-02T11:02:13.845Z,59.60
2019-05-02T11:04:45.328Z,59.35
2019-05-02T11:07:22.759Z,57.34
2019-05-02T11:09:49.395Z,55.76
2019-05-02T11:12:25.560Z,55.31
2019-05-02T11:15:09.425Z,54.88
2019-05-02T11:17:42.300Z,53.96
2019-05-02T11:20:12.765Z,53.87
2019-05-02T11:22:42.844Z,53.89
2019-05-02T11:25:12.979Z,53.29
2019-05-02T11:27:42.638Z,53.66
2019-05-02T11:30:16.799Z,54.27
2019-05-02T11:32:44.114Z,53.34
2019-05-02T11:35:13.767Z,53.78
2019-05-02T11:37:43.447Z,53.78
2019-05-02T11:40:13.258Z,54.03
2019-05-02T11:42:42.785Z,53.59
2019-05-02T11:45:12.700Z,53.07
2019-05-02T11:47:42.437Z,52.63
2019-05-02T11:50:12.180Z,52.67
2019-05-02T11:52:42.395Z,53.19
2019-05-02T11:55:13.063Z,52.96
2019-05-02T11:57:43.002Z,53.82
2019-05-02T12:00:13.231Z,54.53
2019-05-02T12:02:42.699Z,54.89
2019-05-02T12:05:16.746Z,54.89
2019-05-02T12:07:46.962Z,55.24
2019-05-02T12:10:16.801Z,55.77
2019-05-02T12:12:46.330Z,56.68
2019-05-02T12:15:16.096Z,55.97
2019-05-02T12:17:45.979Z,55.97
2019-05-02T12:20:15.694Z,56.02
2019-05-02T12:22:45.333Z,56.69
2019-05-02T12:25:15.080Z,56.17
2019-05-02T12:27:44.813Z,56.03
2019-05-02T12:30:15.141Z,55.67
2019-05-02T12:32:45.194Z,55.29
2019-05-02T12:35:14.923Z,55.54
2019-05-02T12:37:46.983Z,54.92
2019-05-02T12:40:16.370Z,55.45
2019-05-02T12:42:52.471Z,56.00
2019-05-02T12:45:21.988Z,56.48
2019-05-02T12:47:52.321Z,57.96
2019-05-02T12:50:23.405Z,57.88
2019-05-02T12:52:55.664Z,57.96
2019-05-02T12:55:24.611Z,57.85
2019-05-02T12:57:54.244Z,57.88
2019-05-02T13:00:24.129Z,57.74
2019-05-02T13:03:11.655Z,57.26
2019-05-02T13:05:42.616Z,56.70
2019-05-02T13:08:12.538Z,57.11
2019-05-02T13:10:48.388Z,57.18
2019-05-02T13:13:18.751Z,56.33
2019-05-02T13:15:48.400Z,55.57
2019-05-02T13:18:22.644Z,56.07
2019-05-02T13:20:50.098Z,55.76
2019-05-02T13:23:37.321Z,54.73
2019-05-02T13:26:18.442Z,54.28
2019-05-02T13:28:41.812Z,54.13
2019-05-02T13:31:28.947Z,55.14
2019-05-02T13:34:01.842Z,55.28
2019-05-02T13:36:45.280Z,55.91
2019-05-02T13:39:21.887Z,55.25
2019-05-02T13:41:52.162Z,56.68
2019-05-02T13:44:32.670Z,56.93
2019-05-02T13:47:03.423Z,56.25
2019-05-02T13:49:33.121Z,56.02
2019-05-02T13:52:03.548Z,56.72
2019-05-02T13:54:34.519Z,56.27
2019-05-02T13:57:04.251Z,56.98
2019-05-02T13:59:33.918Z,57.68
2019-05-02T14:02:07.232Z,58.61
2019-05-02T14:04:36.753Z,59.05
2019-05-02T14:07:07.701Z,59.18
2019-05-02T14:09:45.326Z,58.97
2019-05-02T14:12:19.071Z,59.35
2019-05-02T14:14:48.660Z,59.75
2019-05-02T14:17:19.885Z,59.55
2019-05-02T14:19:49.630Z,59.74
2019-05-02T14:22:19.543Z,60.20
2019-05-02T14:24:49.489Z,60.71
2019-05-02T14:27:19.177Z,61.20
2019-05-02T14:29:48.962Z,61.27
2019-05-02T14:32:23.201Z,61.78
2019-05-02T14:34:50.050Z,62.54
2019-05-02T14:37:19.684Z,63.20
2019-05-02T14:39:52.442Z,62.67
2019-05-02T14:42:26.161Z,63.39
2019-05-02T14:45:05.489Z,63.52
2019-05-02T14:47:25.213Z,63.84
2019-05-02T14:49:56.755Z,63.62
2019-05-02T14:52:26.512Z,63.73
2019-05-02T14:54:57.164Z,63.39
2019-05-02T14:57:27.390Z,62.22
2019-05-02T14:59:59.554Z,62.48
2019-05-02T15:02:49.049Z,62.25
2019-05-02T15:05:19.353Z,62.80
2019-05-02T15:07:47.428Z,63.02
2019-05-02T15:10:17.573Z,64.56
2019-05-02T15:12:51.696Z,65.12
2019-05-02T15:15:23.088Z,65.84
2019-05-02T15:17:53.155Z,66.21
2019-05-02T15:20:35.910Z,66.89
2019-05-02T15:22:54.140Z,67.22
2019-05-02T15:25:23.823Z,67.75
2019-05-02T15:27:58.195Z,68.62
2019-05-02T15:30:26.263Z,69.69
2019-05-02T15:33:03.315Z,69.54
2019-05-02T15:35:37.571Z,68.64
2019-05-02T15:38:07.218Z,69.03
2019-05-02T15:40:46.987Z,68.80
2019-05-02T15:43:09.594Z,68.59
2019-05-02T15:45:41.946Z,68.78
2019-05-02T15:48:14.579Z,67.21
2019-05-02T15:50:50.230Z,66.80
2019-05-02T15:53:16.912Z,67.04
2019-05-02T15:55:46.562Z,66.46
2019-05-02T15:58:25.942Z,66.63
2019-05-02T16:00:56.514Z,67.31
2019-05-02T16:03:26.220Z,68.33
2019-05-02T16:05:55.771Z,68.87
2019-05-02T16:08:27.186Z,69.34
2019-05-02T16:10:57.261Z,71.38
2019-05-02T16:13:28.363Z,72.56
2019-05-02T16:16:02.236Z,71.85
2019-05-02T16:18:29.249Z,72.30
2019-05-02T16:21:07.272Z,73.02
2019-05-02T16:23:35.806Z,74.59
2019-05-02T16:26:08.932Z,75.26
2019-05-02T16:28:44.154Z,75.51
2019-05-02T16:31:12.546Z,75.02
2019-05-02T16:33:42.346Z,75.48
2019-05-02T16:36:12.719Z,75.04
2019-05-02T16:38:43.407Z,75.41
2019-05-02T16:41:12.974Z,74.72
2019-05-02T16:43:42.641Z,74.51
2019-05-02T16:46:14.119Z,74.17
2019-05-02T16:48:45.008Z,74.20
2019-05-02T16:51:30.063Z,73.93
2019-05-02T16:53:48.515Z,74.23
2019-05-02T16:56:18.236Z,72.78
2019-05-02T16:58:48.251Z,74.01
2019-05-02T17:01:26.630Z,73.71
2019-05-02T17:03:49.705Z,72.74
2019-05-02T17:06:22.456Z,72.85
2019-05-02T17:08:57.521Z,72.65
2019-05-02T17:11:32.390Z,73.73
2019-05-02T17:14:02.156Z,73.10
2019-05-02T17:16:31.651Z,73.37
2019-05-02T17:19:01.746Z,73.87
2019-05-02T17:21:52.240Z,73.53
2019-05-02T17:24:04.904Z,73.30
2019-05-02T17:26:34.829Z,72.77
2019-05-02T17:29:04.580Z,72.57
2019-05-02T17:31:34.168Z,73.15
2019-05-02T17:34:03.833Z,73.62
2019-05-02T17:36:36.632Z,74.29
2019-05-02T17:39:08.447Z,73.55
2019-05-02T17:41:42.346Z,72.97
2019-05-02T17:44:12.983Z,72.51
2019-05-02T17:46:42.746Z,72.00
2019-05-02T17:49:12.181Z,70.96
2019-05-02T17:52:05.704Z,71.94
2019-05-02T17:54:31.616Z,72.54
2019-05-02T17:57:02.162Z,72.18
2019-05-02T17:59:34.637Z,72.33
2019-05-02T18:02:06.506Z,71.34
2019-05-02T18:04:35.571Z,71.26
2019-05-02T18:07:07.903Z,71.15
2019-05-02T18:09:37.589Z,70.21
2019-05-02T18:12:11.897Z,69.58
2019-05-02T18:14:38.581Z,68.77
2019-05-02T18:17:08.731Z,67.83
2019-05-02T18:19:38.255Z,68.17
2019-05-02T18:22:21.082Z,68.04
2019-05-02T18:24:44.807Z,67.34
2019-05-02T18:27:12.732Z,66.62
2019-05-02T18:29:45.418Z,65.72
2019-05-02T18:32:17.539Z,64.78
2019-05-02T18:34:46.920Z,65.28
2019-05-02T18:37:17.129Z,64.71
2019-05-02T18:39:53.336Z,64.94
2019-05-02T18:42:22.107Z,65.24
2019-05-02T18:44:53.124Z,64.53
2019-05-02T18:47:24.814Z,65.11
2019-05-02T18:50:00.680Z,64.31
2019-05-02T18:52:35.709Z,64.71
2019-05-02T18:54:56.799Z,65.62
2019-05-02T18:57:26.409Z,65.26
2019-05-02T18:59:58.176Z,65.06
2019-05-02T19:02:32.561Z,65.37
2019-05-02T19:04:59.545Z,65.74
2019-05-02T19:07:33.022Z,66.37
2019-05-02T19:10:05.818Z,66.34
2019-05-02T19:12:32.760Z,67.25
2019-05-02T19:15:07.013Z,67.23
2019-05-02T19:17:38.433Z,67.15
2019-05-02T19:20:29.260Z,66.69
2019-05-02T19:22:59.025Z,67.59
2019-05-02T19:25:28.562Z,67.55
2019-05-02T19:28:05.872Z,67.21
2019-05-02T19:30:37.202Z,67.34
2019-05-02T19:33:08.417Z,67.42
2019-05-02T19:35:43.255Z,67.53
2019-05-02T19:38:11.774Z,67.24
2019-05-02T19:40:42.798Z,67.67
2019-05-02T19:43:14.736Z,67.52
2019-05-02T19:45:45.691Z,68.16
2019-05-02T19:48:15.385Z,68.06
2019-05-02T19:50:46.059Z,67.88
2019-05-02T19:53:18.512Z,67.64
2019-05-02T19:55:47.337Z,66.91
2019-05-02T19:58:17.198Z,67.34
2019-05-02T20:00:47.555Z,67.71
2019-05-02T20:03:21.578Z,67.38
2019-05-02T20:05:49.017Z,67.75
2019-05-02T20:08:22.826Z,66.81
2019-05-02T20:10:56.719Z,67.30
2019-05-02T20:13:28.040Z,66.68
2019-05-02T20:16:12.930Z,67.27
2019-05-02T20:18:47.073Z,67.11
2019-05-02T20:21:23.235Z,67.47
2019-05-02T20:23:47.848Z,66.71
2019-05-02T20:26:18.012Z,67.34
2019-05-02T20:28:48.324Z,67.17
2019-05-02T20:31:18.099Z,68.29
2019-05-02T20:33:47.814Z,67.82
2019-05-02T20:36:17.927Z,67.55
2019-05-02T20:38:50.244Z,67.22
2019-05-02T20:41:22.382Z,67.26
2019-05-02T20:43:52.235Z,67.29
2019-05-02T20:46:22.043Z,66.99
2019-05-02T20:48:52.585Z,66.45
2019-05-02T20:51:23.013Z,65.56
2019-05-02T20:53:52.858Z,63.94
2019-05-02T20:56:23.119Z,63.46
2019-05-02T20:58:54.545Z,62.71
2019-05-02T21:01:24.338Z,63.16
2019-05-02T21:03:53.967Z,63.03
2019-05-02T21:06:37.568Z,62.39
2019-05-02T21:09:02.204Z,62.67
2019-05-02T21:11:32.460Z,63.04
2019-05-02T21:14:02.472Z,63.15
2019-05-02T21:16:32.330Z,63.05
2019-05-02T21:19:02.390Z,63.13
2019-05-02T21:21:33.896Z,63.02
2019-05-02T21:24:04.326Z,62.70
2019-05-02T21:26:33.994Z,62.06
2019-05-02T21:34:22.703Z,61.88
2019-05-02T21:36:52.522Z,61.02
2019-05-02T21:39:22.598Z,60.38
2019-05-02T21:41:52.926Z,60.74
2019-05-02T21:44:22.583Z,60.59
2019-05-02T21:46:52.198Z,60.21
2019-05-02T21:49:38.229Z,61.12
2019-05-02T21:52:09.552Z,59.72
2019-05-02T21:54:58.713Z,59.56
2019-05-02T21:57:28.264Z,59.14
2019-05-02T21:59:57.814Z,60.63
2019-05-02T22:02:28.719Z,60.75
2019-05-02T22:04:58.359Z,61.16
2019-05-02T22:07:28.074Z,62.08
2019-05-02T22:09:57.780Z,62.88
2019-05-02T22:12:27.344Z,62.07
2019-05-02T22:14:57.027Z,62.76
2019-05-02T22:17:26.593Z,61.77
2019-05-02T22:19:56.234Z,62.04
2019-05-02T22:22:25.803Z,61.51
2019-05-02T22:24:56.475Z,60.96
2019-05-02T22:27:26.144Z,60.70
2019-05-02T22:29:55.754Z,60.75
2019-05-02T22:32:25.511Z,60.59
2019-05-02T22:34:55.994Z,61.10
2019-05-02T22:37:26.364Z,61.77
2019-05-02T22:40:03.647Z,61.90
2019-05-02T22:42:33.323Z,62.49
2019-05-02T22:45:04.583Z,62.11
2019-05-02T22:47:34.602Z,61.42
2019-05-02T22:50:06.640Z,61.70
2019-05-02T22:52:36.258Z,61.85
2019-05-02T22:55:09.548Z,61.83
2019-05-02T22:57:41.509Z,62.18
2019-05-02T23:00:11.191Z,62.18
2019-05-02T23:02:41.863Z,61.76
2019-05-02T23:05:12.410Z,61.62
2019-05-02T23:07:45.387Z,61.08
2019-05-02T23:10:16.399Z,61.67
2019-05-02T23:12:46.018Z,62.26
2019-05-02T23:15:15.838Z,62.88
2019-05-02T23:17:45.406Z,62.11
2019-05-02T23:20:15.309Z,62.36
2019-05-02T23:22:44.903Z,62.15
2019-05-02T23:25:14.786Z,62.26
2019-05-02T23:27:46.179Z,62.56
2019-05-02T23:30:18.075Z,62.23
2019-05-02T23:32:51.250Z,62.97
2019-05-02T23:35:21.445Z,62.25
2019-05-02T23:37:52.958Z,62.86
2019-05-02T23:40:23.192Z,62.66
2019-05-02T23:42:52.831Z,63.04
2019-05-02T23:45:22.706Z,62.87
2019-05-02T23:47:52.882Z,62.88
2019-05-02T23:50:22.991Z,62.63
2019-05-02T23:52:53.578Z,63.74
2019-05-02T23:55:23.288Z,62.80
2019-05-02T23:57:52.993Z,62.41
